Time;durP1;ratioP1;P1;durP2;ratioP2;P2;SDS_P1;SDS_P2;PMS_P1;PMS_P2;Temp;Humidity;BMP_temperature;BMP_pressure;BME280_temperature;BME280_humidity;BME280_pressure;Samples;Min_cycle;Max_cycle;Signal;HPM_P1;HPM_P2
2022/04/20 00:00:20;;;;;;;1.70;1.42;;;7.50;52.00;;;;;;5053756;28;20063;-71
2022/04/20 00:02:46;;;;;;;3.10;1.65;;;7.40;52.00;;;;;;5042274;28;20041;-72
2022/04/20 00:05:12;;;;;;;3.08;1.83;;;7.40;52.30;;;;;;5059317;28;20162;-72
2022/04/20 00:07:38;;;;;;;1.85;1.52;;;7.30;52.40;;;;;;5041371;28;20067;-72
2022/04/20 00:10:04;;;;;;;2.92;1.65;;;7.30;52.40;;;;;;5041199;28;20700;-72
2022/04/20 00:12:30;;;;;;;1.90;1.70;;;7.30;52.50;;;;;;5056916;28;20029;-72
2022/04/20 00:14:55;;;;;;;3.47;2.35;;;7.30;52.60;;;;;;5019411;28;20150;-72
2022/04/20 00:17:21;;;;;;;2.67;1.80;;;7.30;52.70;;;;;;5016509;28;20025;-72
2022/04/20 00:19:47;;;;;;;3.75;1.90;;;7.30;53.40;;;;;;5041802;28;20505;-73
2022/04/20 00:22:12;;;;;;;2.10;1.77;;;7.20;52.70;;;;;;5019512;28;20043;-72
2022/04/20 00:24:38;;;;;;;2.45;1.80;;;7.10;52.80;;;;;;5016914;28;20731;-71
2022/04/20 00:27:03;;;;;;;5.00;1.83;;;7.10;52.90;;;;;;5037389;28;20029;-72
2022/04/20 00:29:29;;;;;;;6.15;1.77;;;7.00;53.00;;;;;;5031979;28;20037;-72
2022/04/20 00:31:54;;;;;;;4.40;2.10;;;7.00;53.20;;;;;;5030010;28;20100;-72
2022/04/20 00:34:20;;;;;;;4.03;1.95;;;6.90;53.40;;;;;;5028327;28;20136;-72
2022/04/20 00:36:50;;;;;;;3.38;2.17;;;6.90;53.50;;;;;;5008554;28;20029;-72
2022/04/20 00:39:16;;;;;;;3.08;2.00;;;6.80;53.50;;;;;;5034902;28;20404;-71
2022/04/20 00:41:41;;;;;;;3.10;2.08;;;6.80;53.60;;;;;;5023525;28;20041;-71
2022/04/20 00:44:07;;;;;;;2.95;1.90;;;6.70;53.70;;;;;;5006653;28;20048;-72
2022/04/20 00:46:32;;;;;;;2.63;1.83;;;6.60;53.70;;;;;;5032072;28;20047;-72
2022/04/20 00:48:58;;;;;;;2.38;1.98;;;6.60;53.90;;;;;;5028587;28;20037;-71
2022/04/20 00:51:24;;;;;;;3.22;1.90;;;6.50;53.90;;;;;;5016485;28;20599;-72
2022/04/20 00:53:49;;;;;;;5.38;2.30;;;6.50;54.10;;;;;;5042117;28;20477;-71
2022/04/20 00:56:15;;;;;;;2.47;1.80;;;6.40;54.10;;;;;;5010738;28;20379;-72
2022/04/20 00:58:40;;;;;;;3.60;1.60;;;6.40;54.30;;;;;;5026171;28;20056;-71
2022/04/20 01:01:07;;;;;;;2.85;1.70;;;6.40;54.40;;;;;;5043748;28;20044;-72
2022/04/20 01:03:32;;;;;;;4.03;1.88;;;6.40;54.60;;;;;;5042243;28;20037;-71
2022/04/20 01:05:58;;;;;;;2.05;1.70;;;6.30;54.60;;;;;;5041062;28;20039;-73
2022/04/20 01:08:24;;;;;;;4.97;2.15;;;6.40;54.90;;;;;;5030462;28;20033;-71
2022/04/20 01:10:49;;;;;;;2.50;1.80;;;6.40;54.90;;;;;;5035386;28;20036;-72
2022/04/20 01:13:15;;;;;;;2.03;1.70;;;6.40;55.00;;;;;;5024134;28;20690;-72
2022/04/20 01:15:40;;;;;;;3.63;1.65;;;6.40;55.00;;;;;;5026262;28;20033;-72
2022/04/20 01:18:15;;;;;;;3.08;1.80;;;6.40;55.10;;;;;;5022521;28;20058;-72
2022/04/20 01:20:41;;;;;;;2.20;1.40;;;6.40;55.40;;;;;;5040839;28;20041;-72
2022/04/20 01:23:07;;;;;;;3.75;1.98;;;6.30;55.00;;;;;;5034528;28;20050;-71
2022/04/20 01:25:32;;;;;;;2.15;1.80;;;6.30;55.10;;;;;;5028038;28;20075;-71
2022/04/20 01:27:59;;;;;;;3.92;1.92;;;6.20;55.10;;;;;;5022681;28;20485;-71
2022/04/20 01:30:25;;;;;;;2.17;1.83;;;6.20;55.20;;;;;;5042029;28;20045;-73
2022/04/20 01:32:50;;;;;;;3.88;1.90;;;6.20;55.30;;;;;;5037640;28;20030;-71
2022/04/20 01:35:16;;;;;;;2.83;1.58;;;6.10;55.30;;;;;;5048432;28;20529;-71
2022/04/20 01:37:41;;;;;;;2.85;2.00;;;6.10;55.40;;;;;;5047049;28;20527;-71
2022/04/20 01:40:07;;;;;;;4.53;2.20;;;6.00;55.50;;;;;;5028082;28;20132;-72
2022/04/20 01:42:33;;;;;;;2.78;2.00;;;5.90;55.50;;;;;;5064547;28;20110;-73
2022/04/20 01:45:00;;;;;;;3.15;1.95;;;5.90;55.70;;;;;;5024128;28;20679;-71
2022/04/20 01:47:26;;;;;;;2.30;1.90;;;5.80;55.90;;;;;;5039252;28;20032;-71
2022/04/20 01:49:52;;;;;;;4.22;1.67;;;5.70;56.00;;;;;;5009748;28;20120;-71
2022/04/20 01:52:18;;;;;;;5.47;1.98;;;5.70;56.20;;;;;;5026962;28;20187;-72
2022/04/20 01:54:43;;;;;;;5.55;2.03;;;5.60;56.30;;;;;;5059907;28;20056;-72
2022/04/20 01:57:09;;;;;;;4.75;1.73;;;5.60;56.40;;;;;;5025749;28;20084;-72
2022/04/20 01:59:34;;;;;;;2.65;1.88;;;5.50;56.50;;;;;;5039112;28;20037;-71
2022/04/20 02:04:44;;;;;;;4.22;2.08;;;5.50;56.80;;;;;;5052660;28;20083;-71
2022/04/20 02:07:09;;;;;;;3.78;1.80;;;5.50;56.90;;;;;;5030399;28;20036;-71
2022/04/20 02:09:35;;;;;;;3.65;1.58;;;5.50;56.80;;;;;;4998644;28;20028;-73
2022/04/20 02:12:00;;;;;;;2.80;1.88;;;5.50;56.90;;;;;;5039315;28;20799;-72
2022/04/20 02:14:26;;;;;;;4.78;1.67;;;5.50;56.90;;;;;;5041672;28;20052;-72
2022/04/20 02:16:52;;;;;;;2.80;2.00;;;5.40;57.00;;;;;;5058279;28;20029;-72
2022/04/20 02:19:18;;;;;;;3.13;2.10;;;5.40;57.10;;;;;;5024480;28;20901;-72
2022/04/20 02:21:43;;;;;;;4.10;1.85;;;5.50;57.30;;;;;;5059489;28;20090;-71
2022/04/20 02:24:10;;;;;;;3.90;1.73;;;5.40;57.30;;;;;;5016401;28;20041;-71
2022/04/20 02:26:36;;;;;;;2.88;2.40;;;5.40;57.40;;;;;;5042582;28;20025;-72
2022/04/20 02:29:01;;;;;;;3.15;2.05;;;5.40;58.10;;;;;;5059125;28;20055;-73
2022/04/20 02:31:27;;;;;;;2.05;1.65;;;5.40;57.40;;;;;;5035146;28;20048;-71
2022/04/20 02:33:53;;;;;;;4.53;2.72;;;5.40;57.60;;;;;;5028109;28;20039;-72
2022/04/20 02:36:18;;;;;;;7.68;2.22;;;5.30;57.70;;;;;;5042091;28;20044;-71
2022/04/20 02:38:44;;;;;;;2.88;2.20;;;5.30;57.70;;;;;;5049781;28;20576;-72
2022/04/20 02:41:09;;;;;;;5.00;1.98;;;5.30;57.70;;;;;;5010564;28;20107;-71
2022/04/20 02:43:35;;;;;;;2.15;1.70;;;5.20;57.70;;;;;;5034195;28;20045;-72
2022/04/20 02:46:00;;;;;;;3.15;1.65;;;5.20;57.80;;;;;;4988712;28;20029;-71
2022/04/20 02:48:26;;;;;;;4.75;2.00;;;5.20;57.90;;;;;;5023603;28;20080;-73
2022/04/20 02:50:52;;;;;;;4.47;1.73;;;5.10;58.00;;;;;;5024083;28;20061;-71
2022/04/20 02:53:17;;;;;;;2.58;1.48;;;5.10;58.10;;;;;;5038170;28;20067;-72
2022/04/20 02:55:43;;;;;;;2.40;1.90;;;5.10;58.20;;;;;;5046218;28;20033;-71
2022/04/20 02:58:09;;;;;;;3.15;1.80;;;5.10;58.20;;;;;;5010002;28;20083;-71
2022/04/20 03:00:34;;;;;;;1.83;1.63;;;5.10;58.30;;;;;;5010770;28;20121;-71
2022/04/20 03:03:00;;;;;;;2.38;1.85;;;5.10;58.40;;;;;;5010170;28;20041;-71
2022/04/20 03:05:25;;;;;;;2.78;1.60;;;5.00;58.40;;;;;;5025674;28;20541;-72
2022/04/20 03:07:51;;;;;;;2.83;1.88;;;5.00;58.50;;;;;;5042078;28;20721;-72
2022/04/20 03:10:17;;;;;;;3.00;1.70;;;5.00;58.60;;;;;;5010549;28;20490;-73
2022/04/20 03:12:42;;;;;;;3.40;1.75;;;5.00;58.70;;;;;;5038531;28;20038;-71
2022/04/20 03:15:08;;;;;;;2.40;1.80;;;5.00;58.70;;;;;;5020720;28;20074;-71
2022/04/20 03:17:34;;;;;;;3.38;1.80;;;4.90;58.70;;;;;;5020819;28;20033;-72
2022/04/20 03:19:59;;;;;;;4.00;1.70;;;4.90;58.80;;;;;;5026579;28;20058;-71
2022/04/20 03:22:25;;;;;;;3.47;2.08;;;4.90;58.90;;;;;;5006872;28;20036;-72
2022/04/20 03:24:50;;;;;;;3.05;1.50;;;4.90;58.90;;;;;;5038984;28;20032;-72
2022/04/20 03:27:16;;;;;;;2.58;1.65;;;4.80;58.90;;;;;;5018902;28;20029;-72
2022/04/20 03:29:42;;;;;;;2.90;2.03;;;4.80;59.00;;;;;;5039829;28;20044;-72
2022/04/20 03:32:12;;;;;;;2.22;1.88;;;4.80;59.10;;;;;;5030997;28;20029;-72
2022/04/20 03:34:38;;;;;;;2.88;1.55;;;4.80;59.10;;;;;;5013787;28;20033;-72
2022/04/20 03:37:07;;;;;;;2.05;1.83;;;4.70;59.70;;;;;;5028581;28;20043;-73
2022/04/20 03:39:33;;;;;;;4.28;2.28;;;4.70;59.30;;;;;;5030394;28;20037;-71
2022/04/20 03:41:59;;;;;;;2.05;1.58;;;4.60;59.30;;;;;;5019849;28;20171;-71
2022/04/20 03:44:24;;;;;;;3.80;2.03;;;4.60;59.40;;;;;;5057238;28;20128;-71
2022/04/20 03:46:51;;;;;;;1.65;1.52;;;4.60;59.40;;;;;;5026603;28;20037;-71
2022/04/20 03:49:16;;;;;;;2.85;2.13;;;4.60;59.50;;;;;;5001899;28;20036;-71
2022/04/20 03:51:43;;;;;;;8.07;2.17;;;4.50;59.60;;;;;;5026305;28;20029;-72
2022/04/20 03:54:08;;;;;;;4.00;1.88;;;4.60;59.70;;;;;;5040462;28;20075;-71
2022/04/20 03:59:18;;;;;;;3.08;1.73;;;4.40;59.70;;;;;;5059989;28;20087;-71
2022/04/20 04:01:44;;;;;;;2.60;1.70;;;4.50;59.90;;;;;;5008966;28;20615;-71
2022/04/20 04:04:10;;;;;;;3.10;1.85;;;4.40;59.90;;;;;;5061828;28;20033;-72
2022/04/20 04:06:35;;;;;;;3.78;1.75;;;4.50;60.00;;;;;;5062169;28;20029;-71
2022/04/20 04:09:01;;;;;;;4.15;2.00;;;4.50;60.20;;;;;;5048577;28;20732;-71
2022/04/20 04:11:27;;;;;;;2.70;1.70;;;4.40;60.10;;;;;;5032915;28;20505;-72
2022/04/20 04:13:52;;;;;;;3.42;1.60;;;4.40;60.10;;;;;;5046680;28;20037;-71
2022/04/20 04:16:18;;;;;;;2.03;1.83;;;4.40;60.10;;;;;;5012548;28;20044;-71
2022/04/20 04:18:43;;;;;;;2.80;2.20;;;4.40;60.30;;;;;;5024688;28;20917;-71
2022/04/20 04:21:09;;;;;;;3.17;2.08;;;4.30;60.20;;;;;;5041269;28;20501;-72
2022/04/20 04:23:34;;;;;;;2.28;1.52;;;4.30;60.20;;;;;;5042888;28;20082;-71
2022/04/20 04:26:00;;;;;;;2.88;1.77;;;4.30;60.40;;;;;;5023297;28;20493;-71
2022/04/20 04:28:25;;;;;;;2.15;1.80;;;4.20;60.40;;;;;;5061612;28;20523;-71
2022/04/20 04:30:51;;;;;;;2.63;1.52;;;4.10;60.40;;;;;;4994919;28;20029;-72
2022/04/20 04:33:16;;;;;;;2.08;1.73;;;4.20;60.60;;;;;;5051210;28;20033;-72
2022/04/20 04:35:42;;;;;;;2.53;1.95;;;4.10;60.80;;;;;;5039810;28;20044;-72
2022/04/20 04:38:07;;;;;;;3.05;1.70;;;4.10;60.80;;;;;;5032833;28;20047;-73
2022/04/20 04:40:33;;;;;;;4.60;2.05;;;4.10;60.90;;;;;;5015416;28;20044;-71
2022/04/20 04:42:59;;;;;;;2.00;1.63;;;4.10;60.90;;;;;;5030816;28;20035;-71
2022/04/20 04:50:52;;;;;;;2.30;1.85;;;4.20;61.10;;;;;;5044053;28;20117;-73
2022/04/20 04:53:18;;;;;;;3.55;1.60;;;4.20;61.10;;;;;;5013264;28;20124;-71
2022/04/20 04:55:43;;;;;;;2.30;1.83;;;4.10;61.10;;;;;;5021176;28;20119;-72
2022/04/20 04:58:09;;;;;;;3.22;1.77;;;4.10;62.00;;;;;;5023397;28;20128;-72
2022/04/20 05:00:34;;;;;;;2.50;1.60;;;4.10;61.30;;;;;;5025440;28;20110;-71
2022/04/20 05:03:00;;;;;;;3.40;1.95;;;4.20;61.40;;;;;;5015952;28;20078;-73
2022/04/20 05:05:26;;;;;;;4.82;2.00;;;4.10;61.40;;;;;;5059712;28;20098;-72
2022/04/20 05:07:54;;;;;;;3.17;1.88;;;4.10;61.40;;;;;;5039383;28;20032;-73
2022/04/20 05:10:21;;;;;;;5.68;1.63;;;4.10;61.40;;;;;;5020250;28;20033;-71
2022/04/20 05:12:47;;;;;;;4.40;1.90;;;4.10;61.50;;;;;;5026406;28;20029;-71
2022/04/20 05:15:13;;;;;;;4.30;2.00;;;4.20;61.60;;;;;;5004495;28;20039;-71
2022/04/20 05:17:38;;;;;;;4.18;2.10;;;4.20;61.60;;;;;;5023652;28;20032;-72
2022/04/20 05:20:05;;;;;;;2.03;1.83;;;4.20;61.60;;;;;;5045246;28;20041;-72
2022/04/20 05:22:30;;;;;;;2.30;1.63;;;4.20;61.80;;;;;;5037922;28;20040;-71
2022/04/20 05:24:56;;;;;;;2.65;2.00;;;4.30;61.80;;;;;;5061308;28;20033;-72
2022/04/20 05:27:22;;;;;;;2.53;2.00;;;4.30;61.80;;;;;;5050264;28;20508;-72
2022/04/20 05:29:47;;;;;;;6.10;2.72;;;4.30;61.80;;;;;;4990322;28;20037;-71
2022/04/20 05:32:13;;;;;;;3.55;2.50;;;4.30;61.80;;;;;;5019140;28;20532;-71
2022/04/20 05:34:39;;;;;;;4.03;2.30;;;4.30;61.90;;;;;;5054482;28;20501;-71
2022/04/20 05:42:33;;;;;;;6.50;2.60;;;4.50;62.00;;;;;;5055881;28;20493;-72
2022/04/20 05:44:59;;;;;;;5.13;2.88;;;4.50;61.90;;;;;;5058764;28;20049;-72
2022/04/20 05:47:24;;;;;;;14.55;6.05;;;4.50;62.00;;;;;;5036544;28;20070;-71
2022/04/20 05:49:50;;;;;;;8.88;4.35;;;4.60;62.00;;;;;;5062665;28;20032;-71
2022/04/20 05:52:16;;;;;;;12.77;5.10;;;4.60;62.10;;;;;;5013449;28;20029;-72
2022/04/20 05:54:42;;;;;;;7.72;4.20;;;4.70;62.20;;;;;;5028896;28;20036;-72
2022/04/20 05:57:07;;;;;;;5.20;3.35;;;4.70;62.20;;;;;;5024790;28;20040;-71
2022/04/20 05:59:33;;;;;;;3.83;2.67;;;4.80;62.30;;;;;;5025685;28;20029;-73
2022/04/20 06:01:58;;;;;;;4.43;2.97;;;4.80;62.30;;;;;;5048172;28;20033;-71
2022/04/20 06:04:25;;;;;;;5.60;2.75;;;4.90;62.20;;;;;;5042209;28;20040;-71
2022/04/20 06:06:51;;;;;;;4.50;2.78;;;5.00;62.10;;;;;;5025658;28;20324;-72
2022/04/20 06:09:16;;;;;;;4.70;2.90;;;5.10;62.20;;;;;;5022226;28;20043;-71
2022/04/20 06:11:42;;;;;;;4.68;3.13;;;5.20;62.10;;;;;;5032123;28;20056;-72
2022/04/20 06:14:07;;;;;;;4.65;2.78;;;5.30;62.20;;;;;;5037025;28;20036;-71
2022/04/20 06:16:33;;;;;;;4.75;2.70;;;5.30;61.90;;;;;;5024617;28;20036;-71
2022/04/20 06:18:59;;;;;;;7.43;2.95;;;5.50;61.80;;;;;;5009882;28;20033;-73
2022/04/20 06:21:24;;;;;;;8.13;2.85;;;5.50;61.80;;;;;;5039494;28;20136;-72
2022/04/20 06:23:50;;;;;;;6.68;2.70;;;5.60;61.70;;;;;;5058745;28;20119;-72
2022/04/20 06:26:15;;;;;;;3.13;2.45;;;5.70;62.40;;;;;;5028254;28;20039;-73
2022/04/20 06:28:41;;;;;;;9.75;2.47;;;5.90;61.70;;;;;;5026366;28;20039;-71
2022/04/20 06:31:07;;;;;;;6.75;2.70;;;6.00;61.50;;;;;;5049689;28;20071;-72
2022/04/20 06:33:33;;;;;;;3.88;2.65;;;6.10;61.40;;;;;;5038159;28;20147;-72
2022/04/20 06:36:00;;;;;;;6.30;2.83;;;6.20;61.20;;;;;;5019686;28;20525;-72
2022/04/20 06:38:26;;;;;;;14.80;4.30;;;6.30;61.20;;;;;;5044158;28;20040;-72
2022/04/20 06:40:52;;;;;;;7.63;3.55;;;6.40;61.00;;;;;;5019165;28;20124;-72
2022/04/20 06:43:18;;;;;;;9.00;2.80;;;6.60;61.00;;;;;;5025395;28;20128;-72
2022/04/20 06:45:44;;;;;;;7.85;2.60;;;6.70;60.80;;;;;;5020439;28;20115;-72
2022/04/20 06:48:10;;;;;;;8.05;2.90;;;6.80;60.70;;;;;;5035463;28;20146;-72
2022/04/20 06:50:36;;;;;;;6.07;2.67;;;7.00;60.60;;;;;;5048519;28;20050;-73
2022/04/20 06:58:38;;;;;;;8.60;3.15;;;7.40;60.20;;;;;;5026947;28;20091;-72
2022/04/20 07:01:04;;;;;;;5.10;2.03;;;7.60;60.10;;;;;;5024694;28;20029;-72
2022/04/20 07:03:31;;;;;;;5.15;2.30;;;7.70;59.90;;;;;;5035084;28;20033;-72
2022/04/20 07:05:57;;;;;;;6.78;2.85;;;7.90;59.80;;;;;;5027619;28;20091;-72
2022/04/20 07:08:23;;;;;;;8.98;2.88;;;8.10;59.70;;;;;;5040729;28;20489;-73
2022/04/20 07:10:49;;;;;;;4.60;2.72;;;8.20;59.50;;;;;;5034196;28;20037;-73
2022/04/20 07:13:16;;;;;;;7.30;2.97;;;8.30;59.30;;;;;;5025824;28;20047;-72
2022/04/20 07:15:41;;;;;;;4.60;2.60;;;8.50;59.10;;;;;;5053110;28;20047;-73
2022/04/20 07:18:07;;;;;;;3.60;2.42;;;8.70;59.00;;;;;;5027673;28;20041;-74
2022/04/20 07:20:32;;;;;;;3.40;2.15;;;8.90;58.90;;;;;;5041936;28;20827;-73
2022/04/20 07:22:58;;;;;;;4.15;2.55;;;9.00;58.70;;;;;;5020891;28;20051;-73
2022/04/20 07:25:25;;;;;;;1.95;1.77;;;9.10;58.40;;;;;;5057239;28;20036;-72
2022/04/20 07:27:51;;;;;;;4.13;2.10;;;9.30;58.20;;;;;;5031818;28;20056;-73
2022/04/20 07:30:16;;;;;;;6.28;2.35;;;9.50;58.10;;;;;;5008803;28;20032;-73
2022/04/20 07:32:42;;;;;;;2.67;2.15;;;9.60;57.90;;;;;;5023235;28;20466;-72
2022/04/20 07:35:08;;;;;;;4.05;2.90;;;9.80;57.70;;;;;;5063490;28;20043;-73
2022/04/20 07:37:33;;;;;;;5.28;2.35;;;10.00;57.50;;;;;;5054273;28;20673;-72
2022/04/20 07:39:59;;;;;;;3.38;2.30;;;10.20;57.20;;;;;;5042782;28;20021;-73
2022/04/20 07:42:25;;;;;;;3.05;2.58;;;10.40;57.10;;;;;;5048711;28;20064;-74
2022/04/20 07:44:50;;;;;;;3.45;2.30;;;10.60;56.90;;;;;;5039698;28;20116;-73
2022/04/20 07:47:16;;;;;;;2.90;2.15;;;10.80;56.60;;;;;;5028708;28;20029;-73
2022/04/20 07:52:25;;;;;;;5.72;2.30;;;11.20;56.10;;;;;;5051505;28;20135;-72
2022/04/20 07:54:51;;;;;;;5.03;2.28;;;11.40;55.70;;;;;;5045608;28;20108;-73
2022/04/20 07:57:16;;;;;;;4.32;2.38;;;11.60;55.30;;;;;;5029021;28;20513;-73
2022/04/20 07:59:42;;;;;;;3.88;2.50;;;11.70;54.90;;;;;;5013959;28;20080;-73
2022/04/20 08:02:08;;;;;;;3.08;2.05;;;11.90;54.70;;;;;;5050000;28;20045;-73
2022/04/20 08:04:33;;;;;;;3.17;2.40;;;12.10;54.40;;;;;;5045332;28;20492;-72
2022/04/20 08:06:59;;;;;;;5.90;2.75;;;12.30;54.10;;;;;;5029255;28;20493;-72
2022/04/20 08:09:25;;;;;;;4.45;2.28;;;12.50;53.70;;;;;;5034022;28;20045;-72
2022/04/20 08:11:50;;;;;;;3.00;2.38;;;12.60;53.30;;;;;;5028286;28;20033;-72
2022/04/20 08:14:16;;;;;;;4.15;2.72;;;12.80;53.00;;;;;;5045130;28;20055;-72
2022/04/20 08:16:43;;;;;;;3.05;2.55;;;13.00;52.70;;;;;;5048738;28;20029;-73
2022/04/20 08:19:09;;;;;;;4.68;2.50;;;13.20;52.20;;;;;;5034732;28;20063;-72
2022/04/20 08:21:34;;;;;;;5.93;2.60;;;13.30;51.80;;;;;;5030907;28;20037;-73
2022/04/20 08:24:00;;;;;;;2.70;2.50;;;13.50;51.50;;;;;;5051855;28;20032;-73
2022/04/20 08:26:26;;;;;;;3.92;2.63;;;13.50;50.90;;;;;;5034263;28;20126;-74
2022/04/20 08:28:51;;;;;;;4.68;3.00;;;13.60;50.60;;;;;;5054413;28;20037;-72
2022/04/20 08:31:17;;;;;;;3.53;2.70;;;13.70;50.40;;;;;;5026078;28;20153;-73
2022/04/20 08:33:43;;;;;;;3.95;2.53;;;13.90;50.00;;;;;;5021260;28;20567;-72
2022/04/20 08:36:11;;;;;;;3.67;3.03;;;14.00;49.60;;;;;;5028361;28;20037;-75
2022/04/20 08:38:38;;;;;;;4.75;2.70;;;14.20;49.30;;;;;;5044727;28;20032;-74
2022/04/20 08:41:03;;;;;;;4.03;2.42;;;14.30;48.90;;;;;;5034032;28;20048;-73
2022/04/20 08:43:29;;;;;;;3.00;2.22;;;14.50;48.60;;;;;;5048086;28;20041;-74
2022/04/20 08:45:55;;;;;;;2.67;2.20;;;14.70;48.30;;;;;;5038842;28;20029;-73
2022/04/20 08:48:20;;;;;;;2.40;2.20;;;14.80;48.10;;;;;;5028820;28;20040;-73
2022/04/20 08:50:46;;;;;;;3.75;2.38;;;15.00;47.80;;;;;;5028584;28;20060;-72
2022/04/20 08:53:12;;;;;;;3.80;2.13;;;15.20;47.50;;;;;;5021478;28;20060;-73
2022/04/20 08:55:37;;;;;;;2.15;1.90;;;15.30;47.20;;;;;;5047998;28;20036;-73
2022/04/20 08:58:04;;;;;;;3.85;1.80;;;15.50;46.90;;;;;;5029246;28;20752;-72
2022/04/20 09:00:29;;;;;;;5.65;3.05;;;15.60;46.60;;;;;;5051126;28;20096;-73
2022/04/20 09:02:56;;;;;;;3.30;2.60;;;15.90;46.50;;;;;;5033528;28;20037;-74
2022/04/20 09:05:23;;;;;;;5.47;2.63;;;16.00;46.00;;;;;;5031189;28;20536;-72
2022/04/20 09:07:48;;;;;;;3.30;2.30;;;16.20;45.70;;;;;;5012864;28;20032;-73
2022/04/20 09:10:16;;;;;;;2.00;1.90;;;16.30;45.30;;;;;;5015150;28;20052;-73
2022/04/20 09:12:42;;;;;;;2.28;2.08;;;16.30;45.20;;;;;;5030497;28;20047;-72
2022/04/20 09:15:09;;;;;;;2.47;2.25;;;16.50;45.30;;;;;;5038861;28;20037;-73
2022/04/20 09:17:44;;;;;;;2.42;2.22;;;16.70;44.80;;;;;;5025354;28;20033;-73
2022/04/20 09:20:15;;;;;;;2.25;2.00;;;16.90;43.90;;;;;;5011536;28;20115;-74
2022/04/20 09:22:40;;;;;;;4.00;1.70;;;17.00;43.90;;;;;;5027229;28;20066;-73
2022/04/20 09:25:08;;;;;;;3.05;1.88;;;17.10;43.50;;;;;;5036479;28;22173;-74
2022/04/20 09:27:40;;;;;;;3.90;2.08;;;17.30;43.20;;;;;;5021347;28;20033;-74
2022/04/20 09:30:16;;;;;;;3.40;1.98;;;17.40;42.30;;;;;;5055727;28;20177;-74
2022/04/20 09:32:43;;;;;;;1.75;1.60;;;17.60;42.00;;;;;;5025459;28;20103;-73
2022/04/20 09:35:10;;;;;;;3.42;2.30;;;17.70;41.70;;;;;;5025175;28;20041;-73
2022/04/20 09:37:36;;;;;;;3.25;2.00;;;17.90;41.40;;;;;;5034731;28;20129;-73
2022/04/20 09:40:10;;;;;;;2.63;2.10;;;18.10;40.80;;;;;;5028270;28;20414;-72
2022/04/20 09:42:36;;;;;;;1.77;1.63;;;18.20;40.20;;;;;;5045299;28;20633;-73
2022/04/20 09:45:04;;;;;;;2.92;1.80;;;18.30;40.20;;;;;;5038507;28;20036;-73
2022/04/20 09:50:27;;;;;;;2.75;2.00;;;18.60;39.80;;;;;;5041356;28;20059;-74
2022/04/20 09:52:55;;;;;;;1.88;1.60;;;18.80;38.80;;;;;;5025572;28;20473;-73
2022/04/20 09:55:34;;;;;;;2.38;2.03;;;18.90;39.20;;;;;;5047127;28;20033;-74
2022/04/20 09:58:09;;;;;;;3.15;1.90;;;19.10;38.20;;;;;;5012341;28;20029;-73
2022/04/20 10:00:42;;;;;;;3.33;2.15;;;19.20;38.10;;;;;;5028924;28;20046;-73
2022/04/20 10:03:08;;;;;;;3.67;2.28;;;19.30;38.20;;;;;;5020031;28;20108;-72
2022/04/20 10:05:34;;;;;;;3.30;2.00;;;19.30;38.50;;;;;;5030145;28;20601;-74
2022/04/20 10:08:00;;;;;;;3.83;1.90;;;19.50;38.30;;;;;;5045322;28;20048;-74
2022/04/20 10:10:30;;;;;;;3.83;2.35;;;19.70;38.20;;;;;;5045119;28;20135;-73
2022/04/20 10:12:55;;;;;;;4.40;1.88;;;19.80;36.80;;;;;;5063815;28;20024;-73
2022/04/20 10:18:08;;;;;;;2.80;2.60;;;19.90;36.90;;;;;;5030328;28;20063;-73
2022/04/20 10:20:34;;;;;;;2.17;1.98;;;20.00;36.70;;;;;;5012813;28;20588;-74
2022/04/20 10:23:00;;;;;;;2.92;1.95;;;20.20;36.90;;;;;;5008863;28;20029;-74
2022/04/20 10:25:26;;;;;;;5.60;1.90;;;20.30;36.50;;;;;;5045012;28;20037;-74
2022/04/20 10:27:57;;;;;;;2.53;2.08;;;20.40;36.90;;;;;;5048207;28;20167;-74
2022/04/20 10:30:38;;;;;;;2.55;2.20;;;20.50;35.30;;;;;;5054156;28;20098;-73
2022/04/20 10:33:13;;;;;;;2.80;1.75;;;20.50;35.60;;;;;;5028282;28;20033;-75
2022/04/20 10:36:00;;;;;;;2.28;2.08;;;20.60;35.10;;;;;;5043071;28;20426;-73
2022/04/20 10:38:28;;;;;;;4.10;2.22;;;20.80;34.80;;;;;;5040158;28;20457;-74
2022/04/20 10:40:54;;;;;;;2.63;1.98;;;20.90;35.20;;;;;;5027298;28;20136;-75
2022/04/20 10:43:20;;;;;;;2.95;1.83;;;21.00;34.80;;;;;;5025057;28;20040;-74
2022/04/20 10:46:06;;;;;;;2.75;1.77;;;20.90;34.60;;;;;;5046024;28;20041;-74
2022/04/20 10:49:15;;;;;;;1.70;1.60;;;20.90;33.30;;;;;;5062457;28;20041;-74
2022/04/20 10:51:45;;;;;;;2.63;1.98;;;21.00;33.80;;;;;;5028427;28;20117;-74
2022/04/20 10:54:24;;;;;;;3.33;1.80;;;21.20;34.20;;;;;;5062608;28;20032;-74
2022/04/20 10:57:02;;;;;;;2.90;1.70;;;21.30;33.30;;;;;;5046512;28;20040;-74
2022/04/20 10:59:28;;;;;;;4.13;1.70;;;21.50;33.50;;;;;;5046959;28;20037;-76
2022/04/20 11:02:02;;;;;;;5.28;1.88;;;21.70;33.90;;;;;;5015533;28;20262;-75
2022/04/20 11:04:50;;;;;;;1.60;1.40;;;21.90;33.20;;;;;;5041233;28;20127;-74
2022/04/20 11:07:19;;;;;;;3.25;1.60;;;22.10;32.80;;;;;;5046238;28;20120;-75
2022/04/20 11:09:45;;;;;;;2.78;2.15;;;22.20;33.90;;;;;;5033854;28;20405;-73
2022/04/20 11:21:09;;;;;;;2.05;1.70;;;22.60;31.40;;;;;;5047830;28;20067;-74
2022/04/20 11:24:03;;;;;;;2.17;1.92;;;22.80;31.60;;;;;;5032165;28;20055;-74
2022/04/20 11:26:29;;;;;;;4.43;2.08;;;22.80;31.10;;;;;;5025861;28;20029;-74
2022/04/20 11:28:56;;;;;;;3.13;2.33;;;22.90;32.00;;;;;;5029018;28;20061;-74
2022/04/20 11:31:21;;;;;;;3.08;1.77;;;23.00;31.70;;;;;;5036758;28;20035;-75
2022/04/20 11:33:47;;;;;;;3.72;1.88;;;23.20;31.60;;;;;;5026181;28;20033;-74
2022/04/20 11:36:13;;;;;;;2.67;1.95;;;23.40;31.70;;;;;;5042046;28;20060;-73
2022/04/20 11:38:41;;;;;;;2.42;2.05;;;23.50;31.60;;;;;;5040202;28;20043;-74
2022/04/20 11:41:07;;;;;;;4.13;2.17;;;23.70;31.40;;;;;;5047263;28;20045;-73
2022/04/20 11:43:32;;;;;;;2.15;1.73;;;23.90;31.00;;;;;;5063433;28;20068;-74
2022/04/20 11:45:59;;;;;;;2.85;1.50;;;24.10;30.80;;;;;;5028610;28;20045;-74
2022/04/20 11:48:25;;;;;;;5.00;2.03;;;24.20;30.70;;;;;;5013598;28;20041;-74
2022/04/20 11:50:57;;;;;;;2.70;2.15;;;24.20;30.60;;;;;;5047024;28;20028;-74
2022/04/20 11:53:40;;;;;;;4.80;2.05;;;24.00;30.10;;;;;;5029852;28;20036;-75
2022/04/20 11:56:12;;;;;;;1.88;1.77;;;23.90;29.90;;;;;;5015723;28;20056;-74
2022/04/20 11:58:37;;;;;;;2.28;1.95;;;23.90;30.20;;;;;;5032317;28;20505;-75
2022/04/20 12:01:07;;;;;;;4.65;2.40;;;24.00;30.20;;;;;;5030981;28;20041;-75
2022/04/20 12:03:37;;;;;;;2.88;2.50;;;24.10;29.90;;;;;;5043035;28;20040;-74
2022/04/20 12:06:04;;;;;;;2.50;1.88;;;24.20;29.70;;;;;;5051993;28;20028;-75
2022/04/20 12:08:31;;;;;;;2.65;2.42;;;24.10;29.80;;;;;;5049427;28;20029;-74
2022/04/20 12:10:57;;;;;;;2.80;2.45;;;24.20;29.80;;;;;;5036965;28;20033;-74
2022/04/20 12:13:29;;;;;;;4.38;2.22;;;24.30;29.60;;;;;;5016179;28;20044;-74
2022/04/20 12:16:08;;;;;;;9.98;2.45;;;24.30;29.40;;;;;;4993916;28;20037;-75
2022/04/20 12:18:41;;;;;;;4.65;2.08;;;24.40;30.00;;;;;;5030398;28;20040;-74
2022/04/20 12:21:40;;;;;;;3.58;1.90;;;24.70;30.00;;;;;;5029791;28;20051;-75
2022/04/20 12:24:10;;;;;;;2.47;1.95;;;25.10;29.20;;;;;;5010957;28;20310;-75
2022/04/20 12:26:40;;;;;;;3.63;1.92;;;25.40;29.40;;;;;;5018293;28;20144;-75
2022/04/20 12:29:06;;;;;;;3.73;2.03;;;25.70;29.10;;;;;;5001673;28;20096;-75
2022/04/20 12:31:33;;;;;;;3.67;1.85;;;25.90;29.10;;;;;;5059318;28;20285;-75
2022/04/20 12:34:03;;;;;;;2.45;1.70;;;26.10;28.90;;;;;;5033651;28;20098;-76
2022/04/20 12:36:30;;;;;;;2.30;2.10;;;26.20;28.70;;;;;;5019402;28;20080;-75
2022/04/20 12:38:57;;;;;;;2.10;1.90;;;26.30;28.70;;;;;;5042371;28;20033;-75
2022/04/20 12:41:43;;;;;;;3.03;2.40;;;26.50;28.50;;;;;;5043653;28;20044;-75
2022/04/20 12:44:39;;;;;;;15.30;3.03;;;26.50;27.90;;;;;;5053457;28;20033;-75
2022/04/20 12:47:11;;;;;;;6.60;1.88;;;26.60;28.00;;;;;;5052146;28;20063;-76
2022/04/20 12:49:37;;;;;;;3.50;2.17;;;26.70;28.30;;;;;;5035364;28;20041;-75
2022/04/20 12:52:15;;;;;;;2.03;1.88;;;26.90;28.50;;;;;;5020945;28;20028;-76
2022/04/20 12:54:51;;;;;;;2.50;2.30;;;26.90;28.10;;;;;;5032401;28;20052;-76
2022/04/20 13:03:00;;;;;;;1.75;1.63;;;27.20;27.90;;;;;;5032307;28;20053;-75
2022/04/20 13:05:25;;;;;;;3.65;2.30;;;27.30;28.00;;;;;;5014029;28;20091;-77
2022/04/20 13:07:51;;;;;;;3.17;2.03;;;27.40;27.90;;;;;;5042883;28;20520;-76
2022/04/20 13:10:17;;;;;;;2.58;1.63;;;27.40;27.80;;;;;;5032206;28;20043;-77
2022/04/20 13:12:52;;;;;;;2.80;1.80;;;27.40;27.80;;;;;;5039684;28;20894;-76
2022/04/20 13:15:17;;;;;;;2.25;1.70;;;27.30;27.40;;;;;;5060748;28;20199;-75
2022/04/20 13:17:43;;;;;;;3.17;2.13;;;27.30;27.50;;;;;;5014362;28;20127;-76
2022/04/20 13:20:09;;;;;;;3.97;2.00;;;27.30;27.40;;;;;;5037141;28;20401;-77
2022/04/20 13:22:34;;;;;;;2.67;2.15;;;27.30;27.50;;;;;;5048200;28;20086;-77
2022/04/20 13:27:56;;;;;;;1.67;1.55;;;27.30;27.40;;;;;;5054858;28;20122;-77
2022/04/20 13:30:22;;;;;;;3.28;1.80;;;27.40;27.50;;;;;;5051776;28;20029;-76
2022/04/20 13:32:51;;;;;;;3.78;1.70;;;27.40;27.30;;;;;;5046567;28;20033;-76
2022/04/20 13:35:17;;;;;;;1.98;1.88;;;27.40;27.10;;;;;;5058595;28;20041;-76
2022/04/20 13:37:42;;;;;;;2.00;1.55;;;27.40;27.10;;;;;;5029702;28;20043;-76
2022/04/20 13:40:09;;;;;;;3.40;1.50;;;27.30;27.00;;;;;;5035150;28;20504;-76